Time;durP1;ratioP1;P1;durP2;ratioP2;P2;SDS_P1;SDS_P2;PMS_P1;PMS_P2;Temp;Humidity;BMP_temperature;BMP_pressure;BME280_temperature;BME280_humidity;BME280_pressure;Samples;Min_cycle;Max_cycle;Signal;HPM_P1;HPM_P2
2024/01/17 00:01:00;;;;;;;4.57;2.10;;;;;;;8.90;45.63;99132.69;5119016;27;20180;-89
2024/01/17 00:03:26;;;;;;;4.17;2.23;;;;;;;8.97;45.56;99141.09;5137416;27;20186;-90
2024/01/17 00:05:53;;;;;;;5.20;1.73;;;;;;;8.88;45.16;99142.38;5120525;27;20185;-89
2024/01/17 00:08:20;;;;;;;5.07;2.00;;;;;;;8.84;45.75;99138.19;5119292;27;20545;-89
2024/01/17 00:10:47;;;;;;;7.63;2.33;;;;;;;8.80;45.58;99128.81;5137163;27;20212;-89
2024/01/17 00:13:12;;;;;;;5.30;2.50;;;;;;;8.80;45.85;99118.34;5137115;27;20654;-88
2024/01/17 00:15:38;;;;;;;4.70;2.30;;;;;;;8.75;46.14;99117.72;5137157;27;20189;-89
2024/01/17 00:18:04;;;;;;;7.10;2.20;;;;;;;8.70;45.69;99124.88;5137205;27;20227;-90
2024/01/17 00:20:32;;;;;;;5.77;2.47;;;;;;;8.61;46.28;99146.22;5117957;27;20263;-89
2024/01/17 00:22:57;;;;;;;4.23;2.23;;;;;;;8.53;46.44;99146.56;5116507;28;20240;-89
2024/01/17 00:25:25;;;;;;;5.73;2.23;;;;;;;8.52;46.58;99138.78;5116399;28;20186;-89
2024/01/17 00:27:51;;;;;;;7.77;2.47;;;;;;;8.59;46.32;99142.84;5116315;28;20623;-89
2024/01/17 00:30:18;;;;;;;6.37;2.83;;;;;;;8.52;46.61;99138.78;5124375;27;20192;-89
2024/01/17 00:32:43;;;;;;;7.30;2.73;;;;;;;8.39;46.25;99142.84;5136916;27;20176;-89
2024/01/17 00:35:09;;;;;;;3.80;1.97;;;;;;;8.25;46.78;99143.44;5137150;27;20235;-89
2024/01/17 00:37:34;;;;;;;6.20;2.27;;;;;;;8.13;47.22;99140.47;5118523;27;20187;-89
2024/01/17 00:40:01;;;;;;;5.50;2.20;;;;;;;8.00;48.08;99150.59;5118476;27;20620;-89
2024/01/17 00:42:29;;;;;;;3.77;1.97;;;;;;;7.88;48.26;99154.56;5118591;27;20279;-89
2024/01/17 00:44:54;;;;;;;7.10;2.93;;;;;;;7.82;48.88;99152.22;5137070;27;20179;-89
2024/01/17 00:47:20;;;;;;;5.03;2.27;;;;;;;7.81;48.78;99147.03;5136935;27;20693;-89
2024/01/17 00:49:47;;;;;;;3.60;1.70;;;;;;;7.82;48.34;99147.00;5136345;27;20176;-90
2024/01/17 00:52:12;;;;;;;4.43;2.13;;;;;;;7.75;48.66;99145.56;5118458;27;20548;-89
2024/01/17 00:54:39;;;;;;;10.17;3.00;;;;;;;7.78;48.90;99134.97;5136757;27;20191;-89
2024/01/17 00:57:05;;;;;;;8.70;2.60;;;;;;;7.87;48.55;99129.38;5110716;28;20629;-88
2024/01/17 00:59:32;;;;;;;5.10;3.23;;;;;;;7.78;48.44;99127.13;5115817;28;20176;-90
2024/01/17 01:02:01;;;;;;;6.37;2.57;;;;;;;7.64;49.06;99126.03;5098270;28;20637;-89
2024/01/17 01:04:28;;;;;;;4.77;2.30;;;;;;;7.60;48.87;99112.25;5097802;28;20268;-89
2024/01/17 01:06:55;;;;;;;3.87;1.93;;;;;;;7.61;49.11;99116.56;5126305;27;20628;-89
2024/01/17 01:09:22;;;;;;;4.90;2.10;;;;;;;7.54;48.90;99107.31;5117900;27;20179;-89
2024/01/17 01:11:47;;;;;;;6.20;2.60;;;;;;;7.56;48.87;99110.69;5117279;27;20187;-89
2024/01/17 01:14:13;;;;;;;9.03;2.90;;;;;;;7.63;48.68;99113.88;5117679;27;20187;-89
2024/01/17 01:16:38;;;;;;;3.60;2.17;;;;;;;7.66;48.34;99113.75;5118239;27;20194;-89
2024/01/17 01:19:05;;;;;;;6.37;2.13;;;;;;;7.72;48.13;99110.91;5118034;27;20221;-89
2024/01/17 01:21:31;;;;;;;5.03;2.10;;;;;;;7.68;48.20;99112.78;5118652;27;20253;-89
2024/01/17 01:23:58;;;;;;;5.30;2.20;;;;;;;7.57;47.92;99115.00;5117745;27;20182;-88
2024/01/17 01:26:24;;;;;;;5.27;2.40;;;;;;;7.48;48.34;99136.22;5118013;27;20221;-89
2024/01/17 01:28:51;;;;;;;4.77;2.23;;;;;;;7.44;48.29;99134.66;5135645;27;20190;-89
2024/01/17 01:31:18;;;;;;;3.80;2.07;;;;;;;7.32;48.58;99129.91;5135441;27;20637;-89
2024/01/17 01:33:43;;;;;;;6.67;2.67;;;;;;;7.24;48.85;99131.97;5118438;27;20185;-88
2024/01/17 01:36:09;;;;;;;5.87;2.20;;;;;;;7.16;49.16;99134.03;5120968;27;20259;-89
2024/01/17 01:38:35;;;;;;;3.17;2.13;;;;;;;7.18;49.70;99138.28;5097437;28;20183;-89
2024/01/17 01:41:01;;;;;;;6.50;2.63;;;;;;;7.15;50.12;99142.78;5118200;27;20271;-90
2024/01/17 01:43:26;;;;;;;8.53;2.80;;;;;;;7.19;50.43;99139.13;5117424;27;20675;-89
2024/01/17 01:46:04;;;;;;;7.27;2.40;;;;;;;7.20;50.23;99127.81;5117361;27;20247;-90
2024/01/17 01:48:31;;;;;;;5.30;2.33;;;;;;;7.18;50.45;99132.25;5097100;28;20211;-89
2024/01/17 01:50:58;;;;;;;10.30;2.53;;;;;;;7.18;50.97;99127.03;5114988;28;20282;-89
2024/01/17 01:53:27;;;;;;;6.97;3.50;;;;;;;7.13;50.77;99113.28;5109939;27;20197;-89
2024/01/17 01:55:54;;;;;;;6.33;2.63;;;;;;;7.10;50.86;99124.69;5135847;27;20258;-90
2024/01/17 01:58:21;;;;;;;6.50;2.33;;;;;;;7.13;50.99;99134.16;5135457;27;20178;-89
2024/01/17 02:00:50;;;;;;;6.93;2.80;;;;;;;7.18;50.72;99127.03;5116900;27;20278;-88
2024/01/17 02:03:15;;;;;;;5.23;2.40;;;;;;;7.20;50.41;99125.19;5117040;27;20183;-89
2024/01/17 02:05:42;;;;;;;10.13;3.80;;;;;;;7.15;50.13;99121.94;5119490;27;20617;-90
2024/01/17 02:08:08;;;;;;;8.47;3.23;;;;;;;7.02;50.18;99118.94;5115060;28;20218;-88
2024/01/17 02:10:35;;;;;;;7.77;3.23;;;;;;;6.90;50.56;99110.72;5107824;27;20210;-89
2024/01/17 02:13:02;;;;;;;6.10;2.80;;;;;;;6.80;50.43;99105.88;5117272;27;20240;-89
2024/01/17 02:15:28;;;;;;;9.67;3.20;;;;;;;6.70;50.81;99114.09;5117150;27;20171;-89
2024/01/17 02:17:54;;;;;;;6.37;3.30;;;;;;;6.71;51.06;99113.19;5117014;27;20632;-89
2024/01/17 02:20:21;;;;;;;5.47;2.90;;;;;;;6.75;51.22;99115.63;5116771;27;20571;-88
2024/01/17 02:22:48;;;;;;;8.53;3.23;;;;;;;6.70;51.29;99114.97;5116151;28;20175;-89
2024/01/17 02:25:15;;;;;;;9.53;3.37;;;;;;;6.67;51.01;99117.69;5134235;27;20327;-88
2024/01/17 02:27:41;;;;;;;10.13;3.90;;;;;;;6.52;51.19;99115.63;5134655;27;20271;-89
2024/01/17 02:30:08;;;;;;;6.63;3.07;;;;;;;6.45;51.08;99114.16;5134587;27;20216;-89
2024/01/17 02:32:35;;;;;;;7.20;3.20;;;;;;;6.27;51.90;99104.41;5116572;27;20190;-89
2024/01/17 02:35:01;;;;;;;7.80;3.43;;;;;;;6.25;52.16;99102.75;5116383;27;20201;-89
2024/01/17 02:37:26;;;;;;;6.83;2.93;;;;;;;6.27;52.15;99104.41;5116462;27;20174;-88
2024/01/17 02:39:53;;;;;;;5.37;2.87;;;;;;;6.24;51.78;99124.50;5116425;27;20178;-88
2024/01/17 02:42:18;;;;;;;6.70;3.03;;;;;;;6.21;52.31;99117.63;5134523;27;20179;-88
2024/01/17 02:44:44;;;;;;;5.93;2.77;;;;;;;6.23;52.18;99128.00;5116535;27;20620;-88
2024/01/17 02:47:09;;;;;;;6.43;2.97;;;;;;;6.19;52.06;99117.69;5116357;27;20196;-88
2024/01/17 02:49:36;;;;;;;6.20;3.33;;;;;;;6.14;52.27;99121.34;5116133;28;20187;-88
2024/01/17 02:52:02;;;;;;;9.67;4.23;;;;;;;6.18;51.82;99115.16;5116605;27;20182;-88
2024/01/17 02:54:29;;;;;;;5.87;3.33;;;;;;;6.26;51.67;99123.53;5134924;27;20179;-88
2024/01/17 02:56:55;;;;;;;7.80;3.50;;;;;;;6.15;51.99;99123.06;5116485;27;20178;-88
2024/01/17 02:59:22;;;;;;;7.93;3.67;;;;;;;5.96;52.55;99121.97;5116056;27;20181;-88
2024/01/17 03:01:48;;;;;;;7.27;4.10;;;;;;;5.85;52.75;99127.53;5116197;28;20213;-88
2024/01/17 03:04:13;;;;;;;8.90;3.70;;;;;;;5.82;52.95;99122.41;5116417;28;20171;-87
2024/01/17 03:06:39;;;;;;;7.87;3.60;;;;;;;5.83;53.44;99120.66;5134335;28;20175;-88
2024/01/17 03:09:05;;;;;;;8.30;3.37;;;;;;;5.73;53.43;99114.09;5134729;28;20198;-88
2024/01/17 03:11:31;;;;;;;7.07;4.23;;;;;;;5.78;53.87;99109.56;5116236;28;20194;-88
2024/01/17 03:13:56;;;;;;;80.40;30.70;;;;;;;5.82;53.92;99121.56;5133786;28;20187;-88
2024/01/17 03:16:22;;;;;;;30.80;12.47;;;;;;;5.71;54.57;99124.53;5116011;28;20171;-88
2024/01/17 03:18:48;;;;;;;43.07;22.57;;;;;;;5.66;55.26;99121.22;5133916;28;20242;-88
2024/01/17 03:21:14;;;;;;;20.33;7.97;;;;;;;5.69;55.04;99115.91;5134575;28;20171;-88
2024/01/17 03:23:41;;;;;;;8.27;3.57;;;;;;;5.67;55.93;99122.06;5116040;28;20643;-88
2024/01/17 03:26:09;;;;;;;31.13;11.67;;;;;;;5.63;55.84;99125.69;5107614;28;20188;-88
2024/01/17 03:28:36;;;;;;;10.73;5.63;;;;;;;5.46;56.36;99126.22;5122163;28;20203;-88
2024/01/17 03:31:02;;;;;;;31.70;11.93;;;;;;;5.42;56.47;99119.44;5098573;28;20186;-88
2024/01/17 03:33:27;;;;;;;22.53;10.27;;;;;;;5.42;56.71;99124.63;5095390;28;20246;-88
2024/01/17 03:35:53;;;;;;;7.90;3.67;;;;;;;5.41;56.77;99126.38;5125307;27;20171;-88
2024/01/17 03:38:21;;;;;;;10.23;5.37;;;;;;;5.39;56.78;99130.78;5120200;27;20253;-88
2024/01/17 03:40:48;;;;;;;6.07;4.00;;;;;;;5.51;56.63;99139.94;5137739;27;20181;-88
2024/01/17 03:43:13;;;;;;;8.07;3.37;;;;;;;5.48;56.68;99142.63;5137882;27;20194;-88
2024/01/17 03:45:39;;;;;;;5.23;3.17;;;;;;;5.42;56.80;99154.06;5119582;27;20176;-88
2024/01/17 03:48:06;;;;;;;4.83;2.77;;;;;;;5.37;56.46;99153.34;5119492;27;20183;-88
2024/01/17 03:50:33;;;;;;;4.70;2.70;;;;;;;5.40;56.62;99158.47;5138196;27;20280;-88
2024/01/17 03:52:59;;;;;;;4.67;2.47;;;;;;;5.44;56.95;99162.69;5137934;27;20169;-88
2024/01/17 03:55:26;;;;;;;5.33;3.10;;;;;;;5.54;56.61;99158.03;5137348;27;20186;-88
2024/01/17 03:57:51;;;;;;;5.27;2.47;;;;;;;5.51;56.28;99160.72;5119836;27;20171;-88
2024/01/17 04:00:19;;;;;;;4.27;2.90;;;;;;;5.50;55.83;99161.63;5119448;27;20268;-88
2024/01/17 04:02:45;;;;;;;6.27;2.83;;;;;;;5.45;56.03;99164.34;5137365;27;20179;-88
2024/01/17 04:05:10;;;;;;;3.63;2.57;;;;;;;5.41;55.64;99161.91;5137735;27;20253;-88
2024/01/17 04:07:35;;;;;;;5.83;2.90;;;;;;;5.48;55.15;99164.28;5119170;27;20186;-88
2024/01/17 04:10:03;;;;;;;4.77;2.70;;;;;;;5.45;55.66;99160.94;5119473;27;20692;-87
2024/01/17 04:12:28;;;;;;;6.93;2.90;;;;;;;5.45;55.37;99168.75;5119387;27;20175;-88
2024/01/17 04:14:54;;;;;;;4.10;2.60;;;;;;;5.45;55.01;99158.34;5118864;27;20191;-88
2024/01/17 04:17:19;;;;;;;5.03;2.47;;;;;;;5.36;55.31;99159.47;5118975;27;20979;-88
2024/01/17 04:19:46;;;;;;;6.00;2.60;;;;;;;5.36;55.29;99167.25;5119102;27;20210;-87
2024/01/17 04:22:12;;;;;;;6.10;2.73;;;;;;;5.30;55.45;99177.84;5118897;27;20171;-88
2024/01/17 04:24:38;;;;;;;7.87;2.73;;;;;;;5.25;55.63;99186.66;5118795;27;20171;-87
2024/01/17 04:27:04;;;;;;;10.10;4.03;;;;;;;5.23;55.39;99191.06;5137442;27;20174;-88
2024/01/17 04:29:31;;;;;;;7.80;3.10;;;;;;;5.23;55.53;99204.91;5119311;27;20272;-88
2024/01/17 04:31:57;;;;;;;4.57;2.40;;;;;;;5.22;55.12;99208.41;5137691;27;20210;-88
2024/01/17 04:34:22;;;;;;;6.30;3.53;;;;;;;5.20;55.14;99205.00;5118673;27;20182;-87
2024/01/17 04:36:49;;;;;;;9.60;4.50;;;;;;;5.11;55.21;99210.47;5118719;27;20189;-87
2024/01/17 04:39:17;;;;;;;8.03;3.77;;;;;;;5.07;55.44;99210.59;5118656;27;20265;-87
2024/01/17 04:41:42;;;;;;;15.67;3.77;;;;;;;5.15;55.32;99209.50;5136804;27;20182;-88
2024/01/17 04:44:09;;;;;;;9.90;4.17;;;;;;;5.10;55.19;99211.38;5118504;27;20178;-88
2024/01/17 04:46:37;;;;;;;8.17;3.50;;;;;;;4.98;55.58;99216.91;5117486;27;20173;-88
2024/01/17 04:49:03;;;;;;;11.13;3.87;;;;;;;4.94;55.61;99218.75;5098055;28;20174;-88
2024/01/17 04:51:29;;;;;;;5.80;2.93;;;;;;;5.02;55.82;99221.13;5097914;28;20249;-88
2024/01/17 04:53:55;;;;;;;5.87;2.87;;;;;;;5.08;55.57;99228.75;5113255;27;20186;-88
2024/01/17 04:56:21;;;;;;;6.20;2.87;;;;;;;5.00;55.91;99237.66;5118291;27;20175;-88
2024/01/17 04:58:48;;;;;;;10.80;2.63;;;;;;;4.93;56.04;99236.97;5118494;27;20197;-88
2024/01/17 05:01:15;;;;;;;6.27;3.27;;;;;;;4.86;56.00;99230.25;5118196;27;20180;-88
2024/01/17 05:03:44;;;;;;;5.50;3.13;;;;;;;4.88;56.33;99231.06;5136605;27;20174;-88
2024/01/17 05:06:11;;;;;;;5.87;3.30;;;;;;;4.95;56.05;99236.03;5118005;27;20186;-88
2024/01/17 05:08:38;;;;;;;6.37;3.17;;;;;;;4.87;56.22;99230.19;5118965;27;20192;-88
2024/01/17 05:11:04;;;;;;;4.97;2.97;;;;;;;4.84;56.32;99226.84;5136053;27;20218;-88
2024/01/17 05:13:30;;;;;;;6.37;2.80;;;;;;;4.81;55.83;99222.59;5135815;27;20273;-88
2024/01/17 05:15:56;;;;;;;5.80;3.07;;;;;;;4.82;56.14;99228.66;5136204;27;20167;-88
2024/01/17 05:18:21;;;;;;;8.10;3.03;;;;;;;4.74;55.96;99230.59;5133572;27;20593;-88
2024/01/17 05:20:47;;;;;;;10.27;3.53;;;;;;;4.62;56.13;99231.78;5134736;27;20206;-88
2024/01/17 05:23:13;;;;;;;5.33;2.47;;;;;;;4.54;57.14;99235.47;5115408;27;20545;-89
2024/01/17 05:25:38;;;;;;;9.43;3.73;;;;;;;4.55;57.14;99238.03;5135280;27;20181;-88
2024/01/17 05:28:06;;;;;;;6.13;2.80;;;;;;;4.46;57.15;99230.47;5135467;27;20569;-89
2024/01/17 05:30:31;;;;;;;7.17;3.10;;;;;;;4.34;57.47;99236.88;5135729;27;20233;-88
2024/01/17 05:32:58;;;;;;;6.40;2.77;;;;;;;4.37;57.86;99240.25;5135120;27;20260;-88
2024/01/17 05:35:23;;;;;;;6.30;2.70;;;;;;;4.38;57.92;99241.97;5134896;27;20193;-88
2024/01/17 05:37:49;;;;;;;5.93;3.10;;;;;;;4.29;58.33;99243.91;5135440;27;20623;-88
2024/01/17 05:40:15;;;;;;;8.37;4.23;;;;;;;4.30;58.66;99266.34;5135537;27;20255;-89
2024/01/17 05:42:45;;;;;;;14.77;5.20;;;;;;;4.30;57.95;99255.97;5117432;27;20592;-89
2024/01/17 05:45:10;;;;;;;20.17;6.13;;;;;;;4.31;57.74;99259.44;5117146;27;20253;-89
2024/01/17 05:47:37;;;;;;;14.10;5.23;;;;;;;4.34;58.00;99270.59;5117675;27;20269;-89
2024/01/17 05:50:08;;;;;;;16.60;6.73;;;;;;;4.38;57.86;99266.16;5135574;27;20216;-89
2024/01/17 05:52:39;;;;;;;11.33;6.03;;;;;;;4.38;57.50;99270.53;5135334;27;20179;-89
2024/01/17 05:55:04;;;;;;;12.83;5.60;;;;;;;4.37;57.46;99271.41;5118115;27;20174;-89
2024/01/17 05:57:30;;;;;;;14.13;6.10;;;;;;;4.40;57.57;99276.53;5116610;27;20630;-88
2024/01/17 05:59:55;;;;;;;17.87;7.83;;;;;;;4.44;57.34;99271.19;5135425;27;20186;-89
2024/01/17 06:02:21;;;;;;;16.03;7.30;;;;;;;4.51;57.37;99275.34;5117032;27;20229;-88
2024/01/17 06:04:46;;;;;;;13.53;6.63;;;;;;;4.55;56.95;99282.16;5135456;27;20508;-88
2024/01/17 06:07:12;;;;;;;13.17;6.57;;;;;;;4.57;56.96;99298.53;5116968;27;20172;-88
2024/01/17 06:09:38;;;;;;;13.47;6.43;;;;;;;4.65;56.63;99294.00;5134975;27;20245;-88
2024/01/17 06:12:03;;;;;;;11.93;5.53;;;;;;;4.71;56.34;99298.19;5134828;27;20199;-89
2024/01/17 06:14:29;;;;;;;11.30;5.47;;;;;;;4.67;56.51;99307.78;5116542;27;20614;-88
2024/01/17 06:16:54;;;;;;;14.10;5.80;;;;;;;4.64;56.63;99307.03;5135713;27;20182;-88
2024/01/17 06:19:20;;;;;;;10.30;5.53;;;;;;;4.53;57.12;99303.88;5134707;27;20269;-88
2024/01/17 06:21:46;;;;;;;12.67;5.43;;;;;;;4.55;57.20;99294.28;5134776;27;20242;-89
2024/01/17 06:24:11;;;;;;;10.93;5.33;;;;;;;4.62;57.38;99295.81;5134675;27;20206;-88
2024/01/17 06:26:36;;;;;;;12.17;5.73;;;;;;;4.69;57.20;99294.78;5116585;27;20530;-88
2024/01/17 06:29:02;;;;;;;10.37;5.23;;;;;;;4.70;57.32;99297.34;5134539;27;20183;-88
2024/01/17 06:31:28;;;;;;;12.50;5.30;;;;;;;4.77;57.55;99300.63;5134538;27;20662;-89
2024/01/17 06:33:53;;;;;;;11.87;5.80;;;;;;;4.92;57.54;99285.50;5116543;27;20179;-88
2024/01/17 06:36:19;;;;;;;11.70;5.83;;;;;;;5.12;57.65;99290.13;5134366;27;20552;-88
2024/01/17 06:38:45;;;;;;;13.00;6.13;;;;;;;5.37;57.43;99296.31;5134493;27;20171;-88
2024/01/17 06:41:10;;;;;;;10.40;5.57;;;;;;;5.69;56.92;99303.16;5134468;27;20261;-88
2024/01/17 06:43:36;;;;;;;12.53;5.87;;;;;;;6.34;56.81;99292.47;5134321;27;20538;-88
2024/01/17 06:46:02;;;;;;;9.83;5.33;;;;;;;7.13;54.24;99274.88;5134297;27;20256;-88
2024/01/17 06:48:28;;;;;;;18.47;5.80;;;;;;;7.96;51.98;99259.50;5134854;27;20244;-88
2024/01/17 06:50:53;;;;;;;12.63;6.60;;;;;;;8.70;49.23;99266.00;5116518;28;20194;-88
2024/01/17 06:53:21;;;;;;;13.03;6.47;;;;;;;9.80;47.61;99275.84;5134613;27;20565;-88
2024/01/17 06:55:47;;;;;;;16.10;6.90;;;;;;;10.71;45.04;99268.72;5115847;27;20179;-88
2024/01/17 06:58:12;;;;;;;13.33;6.77;;;;;;;11.39;42.42;99268.59;5116213;27;20185;-89
2024/01/17 07:00:38;;;;;;;15.83;7.70;;;;;;;12.01;41.87;99267.78;5133973;27;20173;-89
2024/01/17 07:03:03;;;;;;;10.23;5.87;;;;;;;12.04;40.33;99269.41;5116626;28;20247;-89
2024/01/17 07:05:29;;;;;;;21.87;8.27;;;;;;;12.00;40.55;99273.16;5134750;28;20162;-89
2024/01/17 07:07:55;;;;;;;17.30;9.33;;;;;;;12.05;40.35;99266.69;5133907;28;20189;-89
2024/01/17 07:10:20;;;;;;;16.63;7.13;;;;;;;12.53;39.45;99270.91;5136500;27;20213;-89
2024/01/17 07:12:46;;;;;;;12.37;6.50;;;;;;;13.07;37.66;99271.25;5138247;27;20186;-90
2024/01/17 07:15:12;;;;;;;12.50;6.57;;;;;;;13.47;37.51;99263.41;5139009;27;20539;-89
2024/01/17 07:17:38;;;;;;;10.67;4.37;;;;;;;13.87;36.12;99259.13;5120220;27;20171;-90
2024/01/17 07:20:04;;;;;;;21.47;10.13;;;;;;;13.76;36.73;99264.22;5138714;27;20501;-90
2024/01/17 07:22:30;;;;;;;26.23;10.93;;;;;;;13.52;37.55;99274.50;5138221;27;20175;-89
2024/01/17 07:24:56;;;;;;;24.87;10.13;;;;;;;13.13;38.00;99289.28;5138329;27;20627;-90
2024/01/17 07:27:21;;;;;;;29.20;11.73;;;;;;;12.74;38.78;99287.19;5138025;27;20656;-90
2024/01/17 07:29:47;;;;;;;30.77;11.73;;;;;;;12.23;38.96;99285.81;5137904;27;20221;-90
2024/01/17 07:32:13;;;;;;;26.17;11.13;;;;;;;11.97;39.91;99284.66;5138061;27;20663;-90
2024/01/17 07:34:38;;;;;;;20.90;9.20;;;;;;;11.84;39.63;99282.81;5138089;27;20178;-90
2024/01/17 07:37:04;;;;;;;18.83;8.63;;;;;;;11.55;40.04;99285.22;5118738;27;20539;-89
2024/01/17 07:39:29;;;;;;;52.83;18.07;;;;;;;11.29;40.60;99293.63;5100589;28;20678;-91
2024/01/17 07:41:56;;;;;;;21.13;9.47;;;;;;;10.96;41.17;99292.75;5114304;27;20167;-89
2024/01/17 07:44:26;;;;;;;13.60;6.07;;;;;;;10.41;42.62;99303.41;5138440;27;20512;-90
2024/01/17 07:46:53;;;;;;;13.40;5.70;;;;;;;9.91;43.19;99310.19;5119738;27;20186;-89
2024/01/17 07:49:19;;;;;;;10.47;5.20;;;;;;;9.78;43.97;99309.06;5119889;27;20238;-89
2024/01/17 07:51:45;;;;;;;10.13;4.13;;;;;;;9.74;44.43;99313.63;5119932;27;20652;-89
2024/01/17 07:54:10;;;;;;;9.17;4.57;;;;;;;9.61;44.91;99309.88;5119778;27;20263;-89
2024/01/17 07:56:36;;;;;;;7.40;3.60;;;;;;;9.11;46.12;99298.19;5137719;27;20206;-89
2024/01/17 07:59:01;;;;;;;7.60;3.33;;;;;;;9.00;46.70;99293.44;5119594;27;20650;-89
2024/01/17 08:01:29;;;;;;;8.27;3.57;;;;;;;9.00;47.36;99284.75;5119369;27;20239;-90
2024/01/17 08:03:54;;;;;;;6.30;3.23;;;;;;;9.14;47.24;99282.38;5137825;27;20186;-90
2024/01/17 08:06:20;;;;;;;6.93;3.23;;;;;;;9.18;47.80;99281.31;5119972;27;20696;-90
2024/01/17 08:08:46;;;;;;;4.97;2.87;;;;;;;9.18;46.94;99287.41;5137481;27;20584;-89
2024/01/17 08:11:11;;;;;;;6.27;3.27;;;;;;;9.16;47.45;99291.84;5136933;27;20215;-90
2024/01/17 08:13:37;;;;;;;6.60;3.20;;;;;;;9.31;47.43;99303.38;5137647;27;20183;-90
2024/01/17 08:16:02;;;;;;;6.57;3.33;;;;;;;9.48;47.45;99305.25;5137369;27;20651;-90
2024/01/17 08:18:28;;;;;;;6.43;3.27;;;;;;;9.60;47.74;99296.81;5137104;27;20542;-89
2024/01/17 08:20:53;;;;;;;6.20;3.00;;;;;;;9.70;47.10;99291.09;5119153;27;20232;-89
2024/01/17 08:23:19;;;;;;;5.93;3.10;;;;;;;9.74;46.98;99278.72;5137152;27;20175;-90
2024/01/17 08:25:47;;;;;;;7.00;3.27;;;;;;;9.86;47.13;99278.13;5137091;27;20181;-90
2024/01/17 08:28:12;;;;;;;5.67;3.27;;;;;;;9.96;46.96;99276.78;5118883;27;20183;-90
2024/01/17 08:30:38;;;;;;;6.77;3.43;;;;;;;10.15;46.20;99280.25;5136900;27;20194;-90
2024/01/17 08:33:04;;;;;;;8.47;3.43;;;;;;;10.26;45.75;99282.34;5137056;27;20648;-91
2024/01/17 08:35:30;;;;;;;5.47;2.70;;;;;;;10.30;45.93;99270.78;5118669;27;20171;-90
2024/01/17 08:37:56;;;;;;;6.23;3.10;;;;;;;10.40;46.40;99267.63;5136964;27;20182;-90
2024/01/17 08:40:21;;;;;;;6.07;3.33;;;;;;;10.48;45.64;99268.09;5118512;27;20172;-91
2024/01/17 08:42:47;;;;;;;6.90;3.07;;;;;;;10.63;45.46;99269.13;5136943;27;20612;-91
2024/01/17 08:45:12;;;;;;;4.57;2.80;;;;;;;10.47;44.95;99265.56;5136845;27;20250;-91
2024/01/17 08:47:41;;;;;;;4.60;2.70;;;;;;;10.66;45.38;99262.88;5118679;27;20528;-91
2024/01/17 08:50:08;;;;;;;7.60;3.13;;;;;;;10.67;44.24;99264.56;5136482;27;20196;-90
2024/01/17 08:52:33;;;;;;;5.73;2.30;;;;;;;10.88;43.48;99259.06;5136642;27;20536;-90
2024/01/17 08:55:01;;;;;;;5.73;2.93;;;;;;;11.04;43.91;99261.72;5136889;27;20171;-91
2024/01/17 08:57:27;;;;;;;8.27;3.17;;;;;;;11.06;43.52;99254.63;5136425;27;20189;-91
2024/01/17 08:59:52;;;;;;;7.40;3.30;;;;;;;11.11;43.58;99266.56;5136536;27;20171;-90
2024/01/17 09:02:18;;;;;;;6.50;3.00;;;;;;;11.15;43.46;99258.53;5115011;28;20295;-91
2024/01/17 09:04:43;;;;;;;6.00;3.47;;;;;;;11.35;43.70;99253.94;5098347;28;20172;-91
2024/01/17 09:07:09;;;;;;;9.00;3.23;;;;;;;11.49;44.00;99245.31;5103018;27;20521;-92
2024/01/17 09:09:35;;;;;;;6.50;3.23;;;;;;;11.55;43.34;99245.84;5136709;27;20177;-91
2024/01/17 09:12:00;;;;;;;9.03;2.93;;;;;;;11.58;43.11;99245.66;5119310;27;20191;-90
2024/01/17 09:14:26;;;;;;;7.83;2.80;;;;;;;11.58;42.43;99226.44;5118379;27;20206;-90
2024/01/17 09:16:53;;;;;;;4.90;2.67;;;;;;;11.60;42.62;99212.31;5118484;27;20652;-90
2024/01/17 09:19:22;;;;;;;6.33;3.40;;;;;;;11.76;43.64;99217.56;5135984;27;20672;-91
2024/01/17 09:21:54;;;;;;;7.97;3.13;;;;;;;11.75;42.71;99217.66;5118340;27;20167;-90
2024/01/17 09:24:22;;;;;;;6.80;3.20;;;;;;;11.95;42.27;99209.50;5135887;27;20178;-90
2024/01/17 09:26:51;;;;;;;6.87;3.20;;;;;;;11.84;42.03;99197.00;5136283;27;20167;-90
2024/01/17 09:29:17;;;;;;;7.30;2.90;;;;;;;11.92;43.89;99193.91;5136034;27;20278;-90
2024/01/17 09:31:43;;;;;;;5.83;2.83;;;;;;;12.12;42.43;99193.63;5135746;27;20270;-91
2024/01/17 09:34:08;;;;;;;5.97;2.80;;;;;;;12.05;42.54;99184.41;5117252;27;20172;-91
2024/01/17 09:36:34;;;;;;;7.70;3.60;;;;;;;11.90;42.83;99178.22;5117597;27;20212;-91
2024/01/17 09:39:00;;;;;;;8.80;3.63;;;;;;;11.90;43.38;99177.38;5117795;27;20282;-90
2024/01/17 09:41:25;;;;;;;7.70;3.90;;;;;;;12.08;43.52;99168.47;5117672;27;20169;-92
2024/01/17 09:43:51;;;;;;;5.40;3.17;;;;;;;12.37;43.31;99170.19;5117429;27;20215;-92
2024/01/17 09:46:17;;;;;;;9.20;4.30;;;;;;;12.47;43.41;99167.91;5126990;27;20658;-90
2024/01/17 09:48:43;;;;;;;10.37;4.13;;;;;;;12.55;42.59;99158.59;5115290;28;20590;-91
2024/01/17 09:51:16;;;;;;;13.90;5.23;;;;;;;12.58;42.68;99150.53;5107145;27;20221;-93
2024/01/17 09:53:45;;;;;;;10.20;4.97;;;;;;;12.72;42.73;99145.28;5117540;27;20611;-90
2024/01/17 09:56:12;;;;;;;10.10;4.13;;;;;;;12.75;42.38;99139.84;5117319;27;20182;-92
2024/01/17 09:58:42;;;;;;;9.37;4.87;;;;;;;12.60;42.09;99134.66;5117365;27;20620;-90
2024/01/17 10:01:09;;;;;;;13.27;4.73;;;;;;;12.55;42.96;99139.38;5116861;27;20175;-90
2024/01/17 10:03:37;;;;;;;11.37;4.47;;;;;;;12.63;41.72;99132.69;5135324;27;20251;-91
2024/01/17 10:06:02;;;;;;;11.27;4.87;;;;;;;12.60;42.43;99121.53;5105697;27;20182;-90
2024/01/17 10:08:30;;;;;;;12.17;5.20;;;;;;;12.75;41.56;99123.22;5121051;27;20650;-90
2024/01/17 10:10:56;;;;;;;13.73;6.00;;;;;;;12.65;41.43;99125.56;5133934;27;20281;-92
2024/01/17 10:13:22;;;;;;;13.47;5.43;;;;;;;12.65;41.64;99120.31;5116913;27;20236;-91
2024/01/17 10:15:47;;;;;;;14.03;6.90;;;;;;;13.03;41.97;99117.06;5134843;27;20265;-91
2024/01/17 10:18:13;;;;;;;11.90;5.63;;;;;;;13.26;41.72;99111.25;5134954;27;20179;-90
2024/01/17 10:20:39;;;;;;;49.87;24.83;;;;;;;13.29;41.53;99111.03;5135098;27;20175;-91
2024/01/17 10:23:08;;;;;;;10.77;5.93;;;;;;;13.40;42.18;99108.56;5116893;27;20632;-92
2024/01/17 10:25:38;;;;;;;9.90;5.50;;;;;;;13.51;41.02;99113.97;5116887;27;20190;-91
2024/01/17 10:28:04;;;;;;;11.53;5.17;;;;;;;13.81;39.81;99098.78;5116333;27;20183;-90
2024/01/17 10:30:30;;;;;;;13.03;6.13;;;;;;;13.97;40.64;99095.97;5116895;27;20229;-92
2024/01/17 10:32:55;;;;;;;11.63;4.60;;;;;;;13.91;40.91;99092.00;5134815;27;20238;-92
2024/01/17 10:35:23;;;;;;;12.77;5.13;;;;;;;14.08;40.67;99089.06;5116435;27;20193;-91
2024/01/17 10:37:51;;;;;;;13.60;4.80;;;;;;;14.13;40.78;99092.22;5116658;27;20197;-91
2024/01/17 10:40:18;;;;;;;11.40;5.07;;;;;;;14.27;40.35;99090.44;5134750;27;20176;-91
2024/01/17 10:42:44;;;;;;;12.30;4.63;;;;;;;14.54;39.59;99089.41;5134392;27;20173;-90
2024/01/17 10:45:20;;;;;;;8.97;4.17;;;;;;;14.73;39.66;99081.06;5134004;27;20609;-91
2024/01/17 10:47:46;;;;;;;7.73;3.60;;;;;;;14.78;39.37;99071.03;5134889;27;20179;-92
2024/01/17 10:50:12;;;;;;;8.53;2.83;;;;;;;14.79;38.68;99075.34;5116675;28;20274;-91
2024/01/17 10:52:40;;;;;;;5.67;2.33;;;;;;;14.46;38.20;99070.66;5116583;27;20178;-92
2024/01/17 10:55:08;;;;;;;7.63;2.80;;;;;;;14.27;39.07;99062.28;5116478;27;20177;-92
2024/01/17 10:57:40;;;;;;;7.73;3.47;;;;;;;14.71;39.22;99054.78;5116650;28;20205;-91
2024/01/17 11:00:16;;;;;;;7.90;4.10;;;;;;;15.00;38.07;99060.63;5116457;27;20217;-91
2024/01/17 11:02:44;;;;;;;9.13;4.97;;;;;;;14.96;39.11;99064.47;5116655;27;20168;-90
2024/01/17 11:05:11;;;;;;;11.57;4.97;;;;;;;14.95;38.63;99056.63;5134225;28;20246;-91
2024/01/17 11:07:37;;;;;;;8.37;3.90;;;;;;;14.96;38.42;99051.28;5116634;28;20175;-92
2024/01/17 11:10:05;;;;;;;7.07;4.27;;;;;;;15.07;38.08;99040.75;5116331;28;20182;-92
2024/01/17 11:12:36;;;;;;;8.07;4.07;;;;;;;15.21;38.21;99037.97;5134346;28;20179;-91
2024/01/17 11:15:03;;;;;;;8.73;4.47;;;;;;;15.31;37.70;99032.84;5116576;28;20159;-92
2024/01/17 11:17:35;;;;;;;9.00;4.60;;;;;;;15.28;37.71;99028.63;5116622;28;20197;-93
2024/01/17 11:20:08;;;;;;;11.80;5.17;;;;;;;15.21;37.93;99022.13;5116203;28;20171;-92
2024/01/17 11:22:36;;;;;;;7.93;4.60;;;;;;;15.31;37.63;99017.84;5134553;28;20153;-90
2024/01/17 11:25:17;;;;;;;9.83;4.57;;;;;;;15.39;37.82;99020.78;5133840;28;20635;-92
2024/01/17 11:27:54;;;;;;;10.77;5.20;;;;;;;15.14;37.88;99010.34;5115975;28;20191;-92
2024/01/17 11:30:35;;;;;;;7.83;4.43;;;;;;;15.12;38.01;99009.59;5116271;28;20196;-91
2024/01/17 11:33:07;;;;;;;9.67;5.13;;;;;;;14.86;38.04;99015.91;5116214;28;20178;-92